sensor_id;sensor_type;location;lat;lon;timestamp;temperature;humidity
285;DHT22;127;48.770;9.212;2022-11-18T00:01:32;7.50;1.00
285;DHT22;127;48.770;9.212;2022-11-18T00:04:01;7.50;1.00
285;DHT22;127;48.770;9.212;2022-11-18T00:06:30;7.40;1.00
285;DHT22;127;48.770;9.212;2022-11-18T00:08:59;7.50;1.00
285;DHT22;127;48.770;9.212;2022-11-18T00:11:29;7.40;1.00
285;DHT22;127;48.770;9.212;2022-11-18T00:14:15;7.40;1.00
285;DHT22;127;48.770;9.212;2022-11-18T00:16:50;7.50;1.00
285;DHT22;127;48.770;9.212;2022-11-18T00:19:20;7.50;1.00
285;DHT22;127;48.770;9.212;2022-11-18T00:21:49;7.50;1.00
285;DHT22;127;48.770;9.212;2022-11-18T00:24:18;7.40;1.00
285;DHT22;127;48.770;9.212;2022-11-18T00:26:47;7.40;1.00
285;DHT22;127;48.770;9.212;2022-11-18T00:29:18;7.50;1.00
285;DHT22;127;48.770;9.212;2022-11-18T00:31:47;7.40;1.00
285;DHT22;127;48.770;9.212;2022-11-18T00:34:17;7.40;1.00
285;DHT22;127;48.770;9.212;2022-11-18T00:36:46;7.40;1.00
285;DHT22;127;48.770;9.212;2022-11-18T00:39:17;7.40;1.00
285;DHT22;127;48.770;9.212;2022-11-18T00:41:47;7.40;1.00
285;DHT22;127;48.770;9.212;2022-11-18T00:44:31;7.40;1.00
285;DHT22;127;48.770;9.212;2022-11-18T00:46:59;7.40;1.00
285;DHT22;127;48.770;9.212;2022-11-18T00:49:28;7.40;1.00
285;DHT22;127;48.770;9.212;2022-11-18T00:51:57;7.40;1.00
285;DHT22;127;48.770;9.212;2022-11-18T00:54:25;7.50;1.00
285;DHT22;127;48.770;9.212;2022-11-18T00:56:54;7.50;1.00
285;DHT22;127;48.770;9.212;2022-11-18T00:59:23;7.40;1.00
285;DHT22;127;48.770;9.212;2022-11-18T01:01:54;7.50;1.00
285;DHT22;127;48.770;9.212;2022-11-18T01:04:23;7.50;1.00
285;DHT22;127;48.770;9.212;2022-11-18T01:06:51;7.50;1.00
285;DHT22;127;48.770;9.212;2022-11-18T01:09:20;7.50;1.00
285;DHT22;127;48.770;9.212;2022-11-18T01:11:49;7.50;1.00
285;DHT22;127;48.770;9.212;2022-11-18T01:14:30;7.50;1.00
285;DHT22;127;48.770;9.212;2022-11-18T01:17:01;7.40;1.00
285;DHT22;127;48.770;9.212;2022-11-18T01:19:30;7.40;1.00
285;DHT22;127;48.770;9.212;2022-11-18T01:21:58;7.40;1.00
285;DHT22;127;48.770;9.212;2022-11-18T01:24:28;7.40;1.00
285;DHT22;127;48.770;9.212;2022-11-18T01:26:57;7.40;1.00
285;DHT22;127;48.770;9.212;2022-11-18T01:29:26;7.40;1.00
285;DHT22;127;48.770;9.212;2022-11-18T01:31:54;7.50;1.00
285;DHT22;127;48.770;9.212;2022-11-18T01:34:26;7.40;1.00
285;DHT22;127;48.770;9.212;2022-11-18T01:36:55;7.40;1.00
285;DHT22;127;48.770;9.212;2022-11-18T01:39:24;7.40;1.00
285;DHT22;127;48.770;9.212;2022-11-18T01:41:54;7.40;1.00
285;DHT22;127;48.770;9.212;2022-11-18T01:44:52;7.40;1.00
285;DHT22;127;48.770;9.212;2022-11-18T01:47:24;7.40;1.00
285;DHT22;127;48.770;9.212;2022-11-18T01:49:55;7.40;1.00
285;DHT22;127;48.770;9.212;2022-11-18T01:52:26;7.50;1.00
285;DHT22;127;48.770;9.212;2022-11-18T01:54:57;7.50;1.00
285;DHT22;127;48.770;9.212;2022-11-18T01:57:27;7.50;1.00
285;DHT22;127;48.770;9.212;2022-11-18T01:59:58;7.50;1.00
285;DHT22;127;48.770;9.212;2022-11-18T02:02:30;7.50;1.00
285;DHT22;127;48.770;9.212;2022-11-18T02:05:04;7.50;1.00
285;DHT22;127;48.770;9.212;2022-11-18T02:07:34;7.50;1.00
285;DHT22;127;48.770;9.212;2022-11-18T02:10:06;7.60;1.00
285;DHT22;127;48.770;9.212;2022-11-18T02:12:36;7.50;1.00
285;DHT22;127;48.770;9.212;2022-11-18T02:15:06;7.50;1.00
285;DHT22;127;48.770;9.212;2022-11-18T02:17:43;7.40;1.00
285;DHT22;127;48.770;9.212;2022-11-18T02:20:32;7.50;1.00
285;DHT22;127;48.770;9.212;2022-11-18T02:23:33;7.40;1.00
285;DHT22;127;48.770;9.212;2022-11-18T02:29:18;7.50;1.00
285;DHT22;127;48.770;9.212;2022-11-18T02:31:52;7.40;1.00
285;DHT22;127;48.770;9.212;2022-11-18T02:34:35;7.40;1.00
285;DHT22;127;48.770;9.212;2022-11-18T02:37:09;7.40;1.00
285;DHT22;127;48.770;9.212;2022-11-18T02:39:44;7.50;1.00
285;DHT22;127;48.770;9.212;2022-11-18T02:42:15;7.40;1.00
285;DHT22;127;48.770;9.212;2022-11-18T02:44:51;7.40;1.00
285;DHT22;127;48.770;9.212;2022-11-18T02:47:21;7.40;1.00
285;DHT22;127;48.770;9.212;2022-11-18T02:49:54;7.40;1.00
285;DHT22;127;48.770;9.212;2022-11-18T02:52:26;7.40;1.00
285;DHT22;127;48.770;9.212;2022-11-18T02:54:55;7.40;1.00
285;DHT22;127;48.770;9.212;2022-11-18T02:57:27;7.40;1.00
285;DHT22;127;48.770;9.212;2022-11-18T02:59:59;7.40;1.00
285;DHT22;127;48.770;9.212;2022-11-18T03:02:39;7.40;1.00
285;DHT22;127;48.770;9.212;2022-11-18T03:05:12;7.40;1.00
285;DHT22;127;48.770;9.212;2022-11-18T03:07:43;7.40;1.00
285;DHT22;127;48.770;9.212;2022-11-18T03:10:14;7.40;1.00
285;DHT22;127;48.770;9.212;2022-11-18T03:12:47;7.40;1.00
285;DHT22;127;48.770;9.212;2022-11-18T03:15:28;7.50;1.00
285;DHT22;127;48.770;9.212;2022-11-18T03:18:05;7.40;1.00
285;DHT22;127;48.770;9.212;2022-11-18T03:20:37;7.40;1.00
285;DHT22;127;48.770;9.212;2022-11-18T03:23:13;7.50;1.00
285;DHT22;127;48.770;9.212;2022-11-18T03:25:46;7.40;1.00
285;DHT22;127;48.770;9.212;2022-11-18T03:28:22;7.40;1.00
285;DHT22;127;48.770;9.212;2022-11-18T03:30:59;7.40;1.00
285;DHT22;127;48.770;9.212;2022-11-18T03:33:33;7.50;1.00
285;DHT22;127;48.770;9.212;2022-11-18T03:36:05;7.40;1.00
285;DHT22;127;48.770;9.212;2022-11-18T03:38:38;7.50;1.00
285;DHT22;127;48.770;9.212;2022-11-18T03:41:09;7.50;1.00
285;DHT22;127;48.770;9.212;2022-11-18T03:43:43;7.50;1.00
285;DHT22;127;48.770;9.212;2022-11-18T03:46:20;7.50;1.00
285;DHT22;127;48.770;9.212;2022-11-18T03:48:52;7.50;1.00
285;DHT22;127;48.770;9.212;2022-11-18T03:51:23;7.50;1.00
285;DHT22;127;48.770;9.212;2022-11-18T03:53:58;7.50;1.00
285;DHT22;127;48.770;9.212;2022-11-18T03:56:29;7.50;1.00
285;DHT22;127;48.770;9.212;2022-11-18T03:59:06;7.50;1.00
285;DHT22;127;48.770;9.212;2022-11-18T04:01:42;7.50;1.00
285;DHT22;127;48.770;9.212;2022-11-18T04:04:13;7.50;1.00
285;DHT22;127;48.770;9.212;2022-11-18T04:06:44;7.50;1.00
285;DHT22;127;48.770;9.212;2022-11-18T04:09:17;7.50;1.00
285;DHT22;127;48.770;9.212;2022-11-18T04:11:50;7.60;1.00
285;DHT22;127;48.770;9.212;2022-11-18T04:14:33;7.60;1.00
285;DHT22;127;48.770;9.212;2022-11-18T04:17:08;7.60;1.00
285;DHT22;127;48.770;9.212;2022-11-18T04:19:38;7.60;1.00
285;DHT22;127;48.770;9.212;2022-11-18T04:22:07;7.60;1.00
285;DHT22;127;48.770;9.212;2022-11-18T04:24:37;7.60;1.00
285;DHT22;127;48.770;9.212;2022-11-18T04:27:06;7.60;1.00
285;DHT22;127;48.770;9.212;2022-11-18T04:29:35;7.70;1.00
285;DHT22;127;48.770;9.212;2022-11-18T04:32:07;7.70;1.00
285;DHT22;127;48.770;9.212;2022-11-18T04:34:36;7.60;1.00
285;DHT22;127;48.770;9.212;2022-11-18T04:37:04;7.50;1.00
285;DHT22;127;48.770;9.212;2022-11-18T04:39:33;7.40;1.00
285;DHT22;127;48.770;9.212;2022-11-18T04:42:02;7.30;1.00
285;DHT22;127;48.770;9.212;2022-11-18T04:44:32;7.30;1.00
285;DHT22;127;48.770;9.212;2022-11-18T04:47:02;7.30;1.00
285;DHT22;127;48.770;9.212;2022-11-18T04:49:34;7.20;1.00
285;DHT22;127;48.770;9.212;2022-11-18T04:52:03;7.10;1.00
285;DHT22;127;48.770;9.212;2022-11-18T04:54:32;7.20;1.00
285;DHT22;127;48.770;9.212;2022-11-18T04:57:01;7.10;1.00
285;DHT22;127;48.770;9.212;2022-11-18T04:59:30;7.00;1.00
285;DHT22;127;48.770;9.212;2022-11-18T05:01:59;6.90;1.00
285;DHT22;127;48.770;9.212;2022-11-18T05:04:29;6.90;1.00
285;DHT22;127;48.770;9.212;2022-11-18T05:07:01;6.90;1.00
285;DHT22;127;48.770;9.212;2022-11-18T05:09:30;6.90;1.00
285;DHT22;127;48.770;9.212;2022-11-18T05:12:00;6.80;1.00
285;DHT22;127;48.770;9.212;2022-11-18T05:14:41;6.80;1.00
285;DHT22;127;48.770;9.212;2022-11-18T05:17:10;6.80;1.00
285;DHT22;127;48.770;9.212;2022-11-18T05:19:39;6.80;1.00
285;DHT22;127;48.770;9.212;2022-11-18T05:22:10;6.70;1.00
285;DHT22;127;48.770;9.212;2022-11-18T05:24:39;6.70;1.00
285;DHT22;127;48.770;9.212;2022-11-18T05:27:07;6.70;1.00
285;DHT22;127;48.770;9.212;2022-11-18T05:29:36;6.70;1.00
285;DHT22;127;48.770;9.212;2022-11-18T05:32:05;6.70;1.00
285;DHT22;127;48.770;9.212;2022-11-18T05:34:33;6.70;1.00
285;DHT22;127;48.770;9.212;2022-11-18T05:37:02;6.60;1.00
285;DHT22;127;48.770;9.212;2022-11-18T05:39:33;6.60;1.00
285;DHT22;127;48.770;9.212;2022-11-18T05:42:02;6.60;1.00
285;DHT22;127;48.770;9.212;2022-11-18T05:44:43;6.60;1.00
285;DHT22;127;48.770;9.212;2022-11-18T05:47:12;6.60;1.00
285;DHT22;127;48.770;9.212;2022-11-18T05:49:41;6.60;1.00
285;DHT22;127;48.770;9.212;2022-11-18T05:52:09;6.60;1.00
285;DHT22;127;48.770;9.212;2022-11-18T05:54:43;6.60;1.00
285;DHT22;127;48.770;9.212;2022-11-18T05:57:13;6.60;1.00
285;DHT22;127;48.770;9.212;2022-11-18T05:59:42;6.60;1.00
285;DHT22;127;48.770;9.212;2022-11-18T06:02:13;6.50;1.00
285;DHT22;127;48.770;9.212;2022-11-18T06:04:46;6.50;1.00
285;DHT22;127;48.770;9.212;2022-11-18T06:07:18;6.50;1.00
285;DHT22;127;48.770;9.212;2022-11-18T06:09:52;6.50;1.00
285;DHT22;127;48.770;9.212;2022-11-18T06:12:27;6.60;1.00
285;DHT22;127;48.770;9.212;2022-11-18T06:14:59;6.60;1.00
285;DHT22;127;48.770;9.212;2022-11-18T06:17:34;6.60;1.00
285;DHT22;127;48.770;9.212;2022-11-18T06:20:05;6.60;1.00
285;DHT22;127;48.770;9.212;2022-11-18T06:22:34;6.60;1.00
285;DHT22;127;48.770;9.212;2022-11-18T06:25:06;6.60;1.00
285;DHT22;127;48.770;9.212;2022-11-18T06:27:35;6.60;1.00
285;DHT22;127;48.770;9.212;2022-11-18T06:30:05;6.60;1.00
285;DHT22;127;48.770;9.212;2022-11-18T06:32:34;6.50;1.00
285;DHT22;127;48.770;9.212;2022-11-18T06:35:03;6.50;1.00
285;DHT22;127;48.770;9.212;2022-11-18T06:37:32;6.50;1.00
285;DHT22;127;48.770;9.212;2022-11-18T06:40:00;6.50;1.00
285;DHT22;127;48.770;9.212;2022-11-18T06:42:32;6.60;1.00
285;DHT22;127;48.770;9.212;2022-11-18T06:45:13;6.60;1.00
285;DHT22;127;48.770;9.212;2022-11-18T06:47:41;6.60;1.00
285;DHT22;127;48.770;9.212;2022-11-18T06:50:08;6.60;1.00
285;DHT22;127;48.770;9.212;2022-11-18T06:52:37;6.60;1.00
285;DHT22;127;48.770;9.212;2022-11-18T06:55:07;6.60;1.00
285;DHT22;127;48.770;9.212;2022-11-18T06:57:39;6.50;1.00
285;DHT22;127;48.770;9.212;2022-11-18T07:00:09;6.60;1.00
285;DHT22;127;48.770;9.212;2022-11-18T07:02:38;6.50;1.00
285;DHT22;127;48.770;9.212;2022-11-18T07:05:07;6.60;1.00
285;DHT22;127;48.770;9.212;2022-11-18T07:07:36;6.60;1.00
285;DHT22;127;48.770;9.212;2022-11-18T07:10:06;6.60;1.00
285;DHT22;127;48.770;9.212;2022-11-18T07:12:38;6.60;1.00
285;DHT22;127;48.770;9.212;2022-11-18T07:15:08;6.60;1.00
285;DHT22;127;48.770;9.212;2022-11-18T07:17:37;6.60;1.00
285;DHT22;127;48.770;9.212;2022-11-18T07:20:07;6.70;1.00
285;DHT22;127;48.770;9.212;2022-11-18T07:22:36;6.70;1.00
285;DHT22;127;48.770;9.212;2022-11-18T07:25:05;6.70;1.00
285;DHT22;127;48.770;9.212;2022-11-18T07:27:34;6.70;1.00
285;DHT22;127;48.770;9.212;2022-11-18T07:30:06;6.70;1.00
285;DHT22;127;48.770;9.212;2022-11-18T07:32:35;6.70;1.00
285;DHT22;127;48.770;9.212;2022-11-18T07:35:05;6.70;1.00
285;DHT22;127;48.770;9.212;2022-11-18T07:37:36;6.80;1.00
285;DHT22;127;48.770;9.212;2022-11-18T07:40:06;6.70;1.00
285;DHT22;127;48.770;9.212;2022-11-18T07:42:35;6.80;1.00
285;DHT22;127;48.770;9.212;2022-11-18T07:48:17;6.80;1.00
285;DHT22;127;48.770;9.212;2022-11-18T07:50:46;6.80;1.00
285;DHT22;127;48.770;9.212;2022-11-18T07:53:14;6.80;1.00
285;DHT22;127;48.770;9.212;2022-11-18T07:55:43;6.90;1.00
285;DHT22;127;48.770;9.212;2022-11-18T07:58:11;6.90;1.00
285;DHT22;127;48.770;9.212;2022-11-18T08:00:40;7.00;1.00
285;DHT22;127;48.770;9.212;2022-11-18T08:03:09;7.00;1.00
285;DHT22;127;48.770;9.212;2022-11-18T08:05:40;7.00;1.00
285;DHT22;127;48.770;9.212;2022-11-18T08:08:08;7.10;1.00
285;DHT22;127;48.770;9.212;2022-11-18T08:10:38;7.10;1.00
285;DHT22;127;48.770;9.212;2022-11-18T08:13:06;7.10;1.00
285;DHT22;127;48.770;9.212;2022-11-18T08:15:39;7.10;1.00
285;DHT22;127;48.770;9.212;2022-11-18T08:18:08;7.20;1.00
285;DHT22;127;48.770;9.212;2022-11-18T08:20:39;7.20;1.00
285;DHT22;127;48.770;9.212;2022-11-18T08:23:09;7.30;1.00
285;DHT22;127;48.770;9.212;2022-11-18T08:25:38;7.30;1.00
285;DHT22;127;48.770;9.212;2022-11-18T08:28:07;7.30;1.00
285;DHT22;127;48.770;9.212;2022-11-18T08:30:36;7.30;1.00
285;DHT22;127;48.770;9.212;2022-11-18T08:33:05;7.40;1.00
285;DHT22;127;48.770;9.212;2022-11-18T08:35:34;7.30;1.00
285;DHT22;127;48.770;9.212;2022-11-18T08:38:05;7.40;1.00
285;DHT22;127;48.770;9.212;2022-11-18T08:40:34;7.30;1.00
285;DHT22;127;48.770;9.212;2022-11-18T08:43:02;7.40;1.00
285;DHT22;127;48.770;9.212;2022-11-18T08:45:31;7.60;1.00
285;DHT22;127;48.770;9.212;2022-11-18T08:48:01;7.50;1.00
285;DHT22;127;48.770;9.212;2022-11-18T08:50:29;7.60;1.00
285;DHT22;127;48.770;9.212;2022-11-18T08:52:58;7.60;1.00
285;DHT22;127;48.770;9.212;2022-11-18T08:55:29;7.60;1.00
285;DHT22;127;48.770;9.212;2022-11-18T08:57:58;7.60;1.00
285;DHT22;127;48.770;9.212;2022-11-18T09:00:27;7.60;1.00
285;DHT22;127;48.770;9.212;2022-11-18T09:02:55;7.60;1.00
285;DHT22;127;48.770;9.212;2022-11-18T09:05:24;7.60;1.00
285;DHT22;127;48.770;9.212;2022-11-18T09:07:55;7.70;1.00
285;DHT22;127;48.770;9.212;2022-11-18T09:10:24;7.70;1.00
285;DHT22;127;48.770;9.212;2022-11-18T09:12:56;7.70;1.00
285;DHT22;127;48.770;9.212;2022-11-18T09:15:25;7.70;1.00
285;DHT22;127;48.770;9.212;2022-11-18T09:17:55;7.60;1.00
285;DHT22;127;48.770;9.212;2022-11-18T09:20:24;7.60;1.00
285;DHT22;127;48.770;9.212;2022-11-18T09:22:52;7.70;1.00
285;DHT22;127;48.770;9.212;2022-11-18T09:25:21;7.60;1.00
285;DHT22;127;48.770;9.212;2022-11-18T09:27:50;7.60;1.00
285;DHT22;127;48.770;9.212;2022-11-18T09:30:22;7.60;1.00
285;DHT22;127;48.770;9.212;2022-11-18T09:32:51;7.70;1.00
285;DHT22;127;48.770;9.212;2022-11-18T09:35:20;7.80;1.00
285;DHT22;127;48.770;9.212;2022-11-18T09:37:49;7.70;1.00
285;DHT22;127;48.770;9.212;2022-11-18T09:40:18;7.70;1.00
285;DHT22;127;48.770;9.212;2022-11-18T09:42:55;7.70;1.00
285;DHT22;127;48.770;9.212;2022-11-18T09:45:30;7.70;1.00
285;DHT22;127;48.770;9.212;2022-11-18T09:48:14;7.70;1.00
285;DHT22;127;48.770;9.212;2022-11-18T09:50:43;7.70;1.00
285;DHT22;127;48.770;9.212;2022-11-18T09:53:18;7.80;1.00
285;DHT22;127;48.770;9.212;2022-11-18T09:55:48;7.70;1.00
285;DHT22;127;48.770;9.212;2022-11-18T09:58:21;7.80;1.00
285;DHT22;127;48.770;9.212;2022-11-18T10:00:53;7.80;1.00
285;DHT22;127;48.770;9.212;2022-11-18T10:03:25;7.90;1.00
285;DHT22;127;48.770;9.212;2022-11-18T10:05:59;7.90;1.00
285;DHT22;127;48.770;9.212;2022-11-18T10:08:32;7.80;1.00
285;DHT22;127;48.770;9.212;2022-11-18T10:11:09;7.90;1.00
285;DHT22;127;48.770;9.212;2022-11-18T10:13:51;7.90;1.00
285;DHT22;127;48.770;9.212;2022-11-18T10:16:42;8.10;1.00
285;DHT22;127;48.770;9.212;2022-11-18T10:19:25;8.20;1.00
285;DHT22;127;48.770;9.212;2022-11-18T10:22:02;8.30;1.00
285;DHT22;127;48.770;9.212;2022-11-18T10:24:40;8.30;1.00
285;DHT22;127;48.770;9.212;2022-11-18T10:27:11;8.30;1.00
285;DHT22;127;48.770;9.212;2022-11-18T10:29:40;8.30;1.00
285;DHT22;127;48.770;9.212;2022-11-18T10:32:14;8.40;1.00
285;DHT22;127;48.770;9.212;2022-11-18T10:34:48;8.30;1.00
285;DHT22;127;48.770;9.212;2022-11-18T10:37:23;8.50;1.00
285;DHT22;127;48.770;9.212;2022-11-18T10:39:54;8.40;1.00
285;DHT22;127;48.770;9.212;2022-11-18T10:42:27;8.40;1.00
285;DHT22;127;48.770;9.212;2022-11-18T10:45:15;8.50;1.00
285;DHT22;127;48.770;9.212;2022-11-18T10:47:59;8.60;1.00
285;DHT22;127;48.770;9.212;2022-11-18T10:50:30;8.70;1.00
285;DHT22;127;48.770;9.212;2022-11-18T10:53:00;9.00;1.00
285;DHT22;127;48.770;9.212;2022-11-18T10:55:32;9.10;1.00
285;DHT22;127;48.770;9.212;2022-11-18T10:58:06;9.20;1.00
285;DHT22;127;48.770;9.212;2022-11-18T11:00:44;9.10;1.00
285;DHT22;127;48.770;9.212;2022-11-18T11:03:31;9.00;1.00
285;DHT22;127;48.770;9.212;2022-11-18T11:09:13;8.90;1.00
285;DHT22;127;48.770;9.212;2022-11-18T11:11:56;8.80;1.00
285;DHT22;127;48.770;9.212;2022-11-18T11:14:30;8.70;1.00
285;DHT22;127;48.770;9.212;2022-11-18T11:17:04;8.70;1.00
285;DHT22;127;48.770;9.212;2022-11-18T11:19:46;8.70;1.00
285;DHT22;127;48.770;9.212;2022-11-18T11:22:19;8.60;1.00
285;DHT22;127;48.770;9.212;2022-11-18T11:24:47;8.60;1.00
285;DHT22;127;48.770;9.212;2022-11-18T11:27:25;8.50;1.00
285;DHT22;127;48.770;9.212;2022-11-18T11:30:14;8.30;1.00
285;DHT22;127;48.770;9.212;2022-11-18T11:35:54;8.50;1.00
285;DHT22;127;48.770;9.212;2022-11-18T11:38:37;8.50;1.00
285;DHT22;127;48.770;9.212;2022-11-18T11:41:16;8.60;1.00
285;DHT22;127;48.770;9.212;2022-11-18T11:43:57;8.70;1.00
285;DHT22;127;48.770;9.212;2022-11-18T11:46:36;9.10;1.00
285;DHT22;127;48.770;9.212;2022-11-18T11:49:16;9.70;1.00
285;DHT22;127;48.770;9.212;2022-11-18T11:51:53;9.80;99.90
285;DHT22;127;48.770;9.212;2022-11-18T11:54:39;9.70;99.90
285;DHT22;127;48.770;9.212;2022-11-18T11:57:15;9.50;99.90
285;DHT22;127;48.770;9.212;2022-11-18T11:59:51;9.30;99.90
285;DHT22;127;48.770;9.212;2022-11-18T12:05:34;9.40;99.90
285;DHT22;127;48.770;9.212;2022-11-18T12:08:11;9.50;99.90
285;DHT22;127;48.770;9.212;2022-11-18T12:10:45;9.70;99.90
285;DHT22;127;48.770;9.212;2022-11-18T12:13:28;9.60;99.90
285;DHT22;127;48.770;9.212;2022-11-18T12:16:14;9.50;99.90
285;DHT22;127;48.770;9.212;2022-11-18T12:18:48;9.50;99.90
285;DHT22;127;48.770;9.212;2022-11-18T12:24:30;9.30;99.90
285;DHT22;127;48.770;9.212;2022-11-18T12:27:02;9.20;99.90
285;DHT22;127;48.770;9.212;2022-11-18T12:29:39;9.20;99.90
285;DHT22;127;48.770;9.212;2022-11-18T12:32:27;9.10;99.90
285;DHT22;127;48.770;9.212;2022-11-18T12:35:00;8.90;99.90
285;DHT22;127;48.770;9.212;2022-11-18T12:37:57;8.80;99.90
285;DHT22;127;48.770;9.212;2022-11-18T12:40:44;8.60;99.90
285;DHT22;127;48.770;9.212;2022-11-18T12:52:46;8.10;1.00
285;DHT22;127;48.770;9.212;2022-11-18T12:55:18;8.10;1.00
285;DHT22;127;48.770;9.212;2022-11-18T12:57:51;8.20;1.00
285;DHT22;127;48.770;9.212;2022-11-18T13:00:31;8.10;1.00
285;DHT22;127;48.770;9.212;2022-11-18T13:03:26;8.10;1.00
285;DHT22;127;48.770;9.212;2022-11-18T13:06:10;8.20;1.00
285;DHT22;127;48.770;9.212;2022-11-18T13:08:40;8.30;1.00
285;DHT22;127;48.770;9.212;2022-11-18T13:11:14;8.40;1.00
285;DHT22;127;48.770;9.212;2022-11-18T13:13:58;8.60;1.00
285;DHT22;127;48.770;9.212;2022-11-18T13:16:39;9.10;1.00
285;DHT22;127;48.770;9.212;2022-11-18T13:19:21;9.30;1.00
285;DHT22;127;48.770;9.212;2022-11-18T13:21:53;9.30;99.90
285;DHT22;127;48.770;9.212;2022-11-18T13:24:43;9.40;99.90
285;DHT22;127;48.770;9.212;2022-11-18T13:27:21;9.70;99.90
285;DHT22;127;48.770;9.212;2022-11-18T13:29:56;10.90;99.90
285;DHT22;127;48.770;9.212;2022-11-18T13:32:28;12.70;99.90
285;DHT22;127;48.770;9.212;2022-11-18T13:35:03;13.30;99.90
285;DHT22;127;48.770;9.212;2022-11-18T13:37:34;12.60;99.90
285;DHT22;127;48.770;9.212;2022-11-18T13:40:14;12.10;99.90
285;DHT22;127;48.770;9.212;2022-11-18T13:42:44;11.40;99.90
285;DHT22;127;48.770;9.212;2022-11-18T13:45:15;10.80;99.90
285;DHT22;127;48.770;9.212;2022-11-18T13:47:46;11.30;99.90
285;DHT22;127;48.770;9.212;2022-11-18T13:50:20;12.90;99.90
285;DHT22;127;48.770;9.212;2022-11-18T13:52:59;14.60;99.90
285;DHT22;127;48.770;9.212;2022-11-18T13:55:32;15.30;99.90
285;DHT22;127;48.770;9.212;2022-11-18T13:58:03;15.40;99.90
285;DHT22;127;48.770;9.212;2022-11-18T14:00:35;14.80;99.90
285;DHT22;127;48.770;9.212;2022-11-18T14:05:52;13.90;99.90
285;DHT22;127;48.770;9.212;2022-11-18T14:08:26;13.80;99.90
285;DHT22;127;48.770;9.212;2022-11-18T14:10:54;14.10;99.90
285;DHT22;127;48.770;9.212;2022-11-18T14:13:26;14.50;99.90
285;DHT22;127;48.770;9.212;2022-11-18T14:15:59;14.80;99.90
285;DHT22;127;48.770;9.212;2022-11-18T14:18:30;15.30;99.90
285;DHT22;127;48.770;9.212;2022-11-18T14:21:01;15.70;99.90
285;DHT22;127;48.770;9.212;2022-11-18T14:23:32;15.30;99.90
285;DHT22;127;48.770;9.212;2022-11-18T14:26:03;15.60;99.90
285;DHT22;127;48.770;9.212;2022-11-18T14:28:33;16.20;99.90
285;DHT22;127;48.770;9.212;2022-11-18T14:31:18;16.00;99.90
285;DHT22;127;48.770;9.212;2022-11-18T14:34:04;16.00;99.90
285;DHT22;127;48.770;9.212;2022-11-18T14:36:33;16.20;99.90
285;DHT22;127;48.770;9.212;2022-11-18T14:39:11;16.30;99.90
285;DHT22;127;48.770;9.212;2022-11-18T14:41:40;16.10;99.90
285;DHT22;127;48.770;9.212;2022-11-18T14:44:15;16.50;99.90
285;DHT22;127;48.770;9.212;2022-11-18T14:46:48;16.90;99.90
285;DHT22;127;48.770;9.212;2022-11-18T14:49:21;16.70;99.90
285;DHT22;127;48.770;9.212;2022-11-18T14:51:50;16.30;99.90
285;DHT22;127;48.770;9.212;2022-11-18T14:54:21;15.70;99.90
285;DHT22;127;48.770;9.212;2022-11-18T14:56:50;14.90;99.90
285;DHT22;127;48.770;9.212;2022-11-18T14:59:20;14.70;99.90
285;DHT22;127;48.770;9.212;2022-11-18T15:01:51;14.70;99.90
285;DHT22;127;48.770;9.212;2022-11-18T15:04:20;14.90;99.90
285;DHT22;127;48.770;9.212;2022-11-18T15:06:49;14.00;99.90
285;DHT22;127;48.770;9.212;2022-11-18T15:09:18;13.10;99.90
285;DHT22;127;48.770;9.212;2022-11-18T15:11:47;12.70;99.90
285;DHT22;127;48.770;9.212;2022-11-18T15:14:16;12.10;99.90
285;DHT22;127;48.770;9.212;2022-11-18T15:16:44;11.60;99.90
285;DHT22;127;48.770;9.212;2022-11-18T15:19:15;11.00;99.90
285;DHT22;127;48.770;9.212;2022-11-18T15:21:44;10.60;99.90
285;DHT22;127;48.770;9.212;2022-11-18T15:24:13;10.10;99.90
285;DHT22;127;48.770;9.212;2022-11-18T15:26:44;9.90;99.90
285;DHT22;127;48.770;9.212;2022-11-18T15:29:17;9.50;99.90
285;DHT22;127;48.770;9.212;2022-11-18T15:31:46;9.40;99.90
285;DHT22;127;48.770;9.212;2022-11-18T15:34:18;9.40;99.90
285;DHT22;127;48.770;9.212;2022-11-18T15:36:47;9.10;99.90
285;DHT22;127;48.770;9.212;2022-11-18T15:39:16;9.10;99.90
285;DHT22;127;48.770;9.212;2022-11-18T15:41:44;9.00;99.90
285;DHT22;127;48.770;9.212;2022-11-18T15:44:13;8.90;99.90
285;DHT22;127;48.770;9.212;2022-11-18T15:46:42;9.00;99.90
285;DHT22;127;48.770;9.212;2022-11-18T15:49:13;9.00;99.90
285;DHT22;127;48.770;9.212;2022-11-18T15:51:45;9.00;99.90
285;DHT22;127;48.770;9.212;2022-11-18T15:54:13;9.00;99.90
285;DHT22;127;48.770;9.212;2022-11-18T15:56:42;8.90;99.90
285;DHT22;127;48.770;9.212;2022-11-18T15:59:12;8.80;99.90
285;DHT22;127;48.770;9.212;2022-11-18T16:01:42;8.80;99.90
285;DHT22;127;48.770;9.212;2022-11-18T16:04:13;8.70;99.90
285;DHT22;127;48.770;9.212;2022-11-18T16:06:44;8.70;99.90
285;DHT22;127;48.770;9.212;2022-11-18T16:09:14;8.60;99.90
285;DHT22;127;48.770;9.212;2022-11-18T16:11:43;8.60;99.90
285;DHT22;127;48.770;9.212;2022-11-18T16:14:24;8.50;99.90
285;DHT22;127;48.770;9.212;2022-11-18T16:16:54;8.50;99.90
285;DHT22;127;48.770;9.212;2022-11-18T16:19:24;8.40;99.90
285;DHT22;127;48.770;9.212;2022-11-18T16:22:00;8.40;99.90
285;DHT22;127;48.770;9.212;2022-11-18T16:24:29;8.40;99.90
285;DHT22;127;48.770;9.212;2022-11-18T16:26:58;8.30;99.90
285;DHT22;127;48.770;9.212;2022-11-18T16:29:26;8.40;99.90
285;DHT22;127;48.770;9.212;2022-11-18T16:31:55;8.40;99.90
285;DHT22;127;48.770;9.212;2022-11-18T16:34:22;8.40;99.90
285;DHT22;127;48.770;9.212;2022-11-18T16:36:52;8.40;99.90
285;DHT22;127;48.770;9.212;2022-11-18T16:39:24;8.40;99.90
285;DHT22;127;48.770;9.212;2022-11-18T16:41:54;8.40;99.90
285;DHT22;127;48.770;9.212;2022-11-18T16:44:23;8.40;99.90
285;DHT22;127;48.770;9.212;2022-11-18T16:46:54;8.40;99.90
285;DHT22;127;48.770;9.212;2022-11-18T16:49:24;8.40;99.90
285;DHT22;127;48.770;9.212;2022-11-18T16:51:54;8.40;99.90
285;DHT22;127;48.770;9.212;2022-11-18T16:54:26;8.40;99.90
285;DHT22;127;48.770;9.212;2022-11-18T16:56:59;8.40;99.90
285;DHT22;127;48.770;9.212;2022-11-18T16:59:29;8.30;99.90
285;DHT22;127;48.770;9.212;2022-11-18T17:01:58;8.30;99.90
285;DHT22;127;48.770;9.212;2022-11-18T17:04:29;8.30;99.90
285;DHT22;127;48.770;9.212;2022-11-18T17:06:59;8.30;99.90
285;DHT22;127;48.770;9.212;2022-11-18T17:09:31;8.20;99.90
285;DHT22;127;48.770;9.212;2022-11-18T17:12:00;8.20;99.90
285;DHT22;127;48.770;9.212;2022-11-18T17:14:29;8.10;99.90
285;DHT22;127;48.770;9.212;2022-11-18T17:16:57;8.10;99.90
285;DHT22;127;48.770;9.212;2022-11-18T17:19:26;8.20;99.90
285;DHT22;127;48.770;9.212;2022-11-18T17:21:55;8.20;99.90
285;DHT22;127;48.770;9.212;2022-11-18T17:24:24;8.20;99.90
285;DHT22;127;48.770;9.212;2022-11-18T17:26:55;8.30;99.90
285;DHT22;127;48.770;9.212;2022-11-18T17:29:24;8.20;99.90
285;DHT22;127;48.770;9.212;2022-11-18T17:31:52;8.20;99.90
285;DHT22;127;48.770;9.212;2022-11-18T17:34:21;8.10;99.90
285;DHT22;127;48.770;9.212;2022-11-18T17:36:49;8.00;99.90
285;DHT22;127;48.770;9.212;2022-11-18T17:39:18;8.10;99.90
285;DHT22;127;48.770;9.212;2022-11-18T17:41:47;8.00;99.90
285;DHT22;127;48.770;9.212;2022-11-18T17:44:30;8.10;99.90
285;DHT22;127;48.770;9.212;2022-11-18T17:46:59;8.00;99.90
285;DHT22;127;48.770;9.212;2022-11-18T17:49:28;7.90;99.90
285;DHT22;127;48.770;9.212;2022-11-18T17:51:56;7.90;99.90
285;DHT22;127;48.770;9.212;2022-11-18T17:54:25;7.80;99.90
285;DHT22;127;48.770;9.212;2022-11-18T17:56:53;7.80;99.90
285;DHT22;127;48.770;9.212;2022-11-18T17:59:22;7.90;99.90
285;DHT22;127;48.770;9.212;2022-11-18T18:01:53;7.80;99.90
285;DHT22;127;48.770;9.212;2022-11-18T18:04:22;7.90;99.90
285;DHT22;127;48.770;9.212;2022-11-18T18:06:51;8.00;99.90